createdAt,value
2023-07-25T00:00:51.085Z,2.45
2023-07-25T00:02:02.249Z,2.60
2023-07-25T00:03:04.326Z,3.80
2023-07-25T00:04:06.434Z,2.50
2023-07-25T00:05:09.053Z,2.80
2023-07-25T00:06:11.486Z,3.20
2023-07-25T00:07:13.480Z,2.65
2023-07-25T00:08:15.567Z,2.60
2023-07-25T00:09:17.539Z,2.63
2023-07-25T00:10:21.064Z,2.83
2023-07-25T00:11:23.519Z,2.95
2023-07-25T00:12:25.908Z,3.25
2023-07-25T00:13:28.188Z,2.92
2023-07-25T00:14:30.601Z,2.80
2023-07-25T00:15:32.708Z,2.85
2023-07-25T00:16:34.710Z,2.42
2023-07-25T00:17:36.930Z,2.67
2023-07-25T00:18:39.388Z,2.28
2023-07-25T00:19:41.694Z,2.95
2023-07-25T00:20:44.035Z,3.00
2023-07-25T00:21:46.087Z,2.40
2023-07-25T00:22:48.431Z,2.40
2023-07-25T00:23:50.410Z,2.70
2023-07-25T00:24:52.536Z,2.60
2023-07-25T00:25:54.528Z,3.22
2023-07-25T00:26:56.932Z,2.83
2023-07-25T00:27:58.882Z,3.05
2023-07-25T00:29:00.913Z,3.30
2023-07-25T00:30:05.252Z,3.10
2023-07-25T00:31:08.722Z,3.08
2023-07-25T00:32:10.744Z,2.83
2023-07-25T00:33:12.764Z,2.85
2023-07-25T00:34:14.777Z,2.30
2023-07-25T00:35:17.110Z,2.70
2023-07-25T00:36:19.126Z,2.33
2023-07-25T00:37:21.151Z,2.20
2023-07-25T00:38:23.139Z,2.47
2023-07-25T00:39:25.752Z,2.55
2023-07-25T00:40:29.049Z,3.00
2023-07-25T00:41:31.213Z,2.95
2023-07-25T00:42:33.724Z,2.78
2023-07-25T00:43:36.033Z,3.45
2023-07-25T00:44:38.019Z,2.10
2023-07-25T00:45:40.047Z,2.85
2023-07-25T00:46:43.314Z,2.55
2023-07-25T00:47:45.746Z,2.47
2023-07-25T00:48:48.078Z,2.63
2023-07-25T00:49:51.811Z,3.17
2023-07-25T00:50:53.905Z,2.60
2023-07-25T00:51:56.370Z,3.05
2023-07-25T00:52:59.929Z,2.55
2023-07-25T00:54:02.890Z,3.10
2023-07-25T00:55:05.401Z,2.72
2023-07-25T00:57:10.929Z,2.50
2023-07-25T00:58:13.028Z,3.78
2023-07-25T00:59:15.047Z,2.85
2023-07-25T01:00:17.578Z,2.90
2023-07-25T01:01:19.749Z,3.13
2023-07-25T01:02:22.111Z,2.55
2023-07-25T01:03:24.270Z,3.30
2023-07-25T01:04:27.628Z,2.75
2023-07-25T01:05:31.178Z,2.47
2023-07-25T01:06:34.432Z,3.63
2023-07-25T01:07:39.952Z,3.17
2023-07-25T01:08:49.994Z,3.55
2023-07-25T01:09:51.990Z,2.88
2023-07-25T01:10:54.701Z,2.53
2023-07-25T01:12:59.208Z,2.58
2023-07-25T01:14:01.255Z,2.78
2023-07-25T01:15:03.595Z,3.38
2023-07-25T01:16:06.582Z,3.15
2023-07-25T01:17:18.590Z,2.67
2023-07-25T01:18:21.401Z,3.97
2023-07-25T01:20:29.222Z,3.65
2023-07-25T01:21:31.896Z,3.40
2023-07-25T01:22:37.738Z,2.92
2023-07-25T01:23:40.593Z,2.40
2023-07-25T01:24:47.744Z,2.72
2023-07-25T01:25:50.258Z,3.40
2023-07-25T01:26:52.264Z,4.25
2023-07-25T01:27:54.288Z,2.40
2023-07-25T01:28:56.299Z,3.65
2023-07-25T01:29:58.713Z,3.17
2023-07-25T01:31:00.883Z,3.08
2023-07-25T01:32:03.114Z,2.97
2023-07-25T01:33:05.770Z,2.75
2023-07-25T01:34:08.252Z,3.55
2023-07-25T01:35:10.325Z,3.10
2023-07-25T01:36:12.369Z,2.90
2023-07-25T01:37:14.479Z,3.92
2023-07-25T01:38:16.869Z,2.88
2023-07-25T01:39:18.894Z,2.97
2023-07-25T01:40:20.939Z,3.30
2023-07-25T01:41:23.101Z,3.20
2023-07-25T01:42:25.474Z,3.20
2023-07-25T01:43:27.522Z,2.83
2023-07-25T01:44:29.633Z,2.85
2023-07-25T01:45:31.722Z,2.65
2023-07-25T01:46:34.152Z,3.65
2023-07-25T01:47:36.235Z,3.28
2023-07-25T01:48:38.271Z,3.03
2023-07-25T01:49:40.207Z,3.53
2023-07-25T01:50:42.537Z,3.13
2023-07-25T01:51:44.638Z,3.30
2023-07-25T01:52:46.679Z,3.08
2023-07-25T01:53:48.679Z,4.05
2023-07-25T01:54:53.299Z,3.40
2023-07-25T01:55:55.336Z,3.25
2023-07-25T01:56:57.449Z,3.50
2023-07-25T01:57:59.766Z,3.47
2023-07-25T01:59:02.192Z,3.10
2023-07-25T02:00:04.562Z,3.35
2023-07-25T02:01:06.711Z,2.95
2023-07-25T02:02:08.860Z,3.28
2023-07-25T02:03:12.276Z,2.88
2023-07-25T02:04:14.571Z,3.22
2023-07-25T02:05:16.561Z,2.63
2023-07-25T02:06:18.512Z,3.42
2023-07-25T02:07:20.834Z,2.80
2023-07-25T02:08:22.888Z,3.47
2023-07-25T02:09:25.004Z,2.88
2023-07-25T02:10:28.953Z,2.85
2023-07-25T02:11:31.612Z,3.50
2023-07-25T02:12:33.895Z,3.15
2023-07-25T02:13:35.953Z,2.42
2023-07-25T02:14:37.908Z,2.90
2023-07-25T02:15:40.367Z,3.28
2023-07-25T02:16:43.544Z,2.58
2023-07-25T02:17:45.682Z,2.60
2023-07-25T02:18:47.730Z,3.08
2023-07-25T02:19:50.066Z,3.50
2023-07-25T02:20:52.676Z,2.42
2023-07-25T02:21:54.651Z,3.53
2023-07-25T02:22:56.633Z,3.25
2023-07-25T02:23:58.956Z,2.47
2023-07-25T02:25:00.964Z,2.28
2023-07-25T02:26:03.065Z,2.58
2023-07-25T02:27:05.426Z,2.53
2023-07-25T02:29:09.920Z,2.53
2023-07-25T02:30:12.666Z,2.85
2023-07-25T02:32:17.028Z,2.28
2023-07-25T02:33:19.277Z,2.10
2023-07-25T02:34:21.319Z,2.20
2023-07-25T02:35:23.395Z,2.28
2023-07-25T02:36:25.890Z,2.47
2023-07-25T02:37:27.937Z,2.72
2023-07-25T02:38:30.009Z,2.53
2023-07-25T02:39:32.078Z,2.40
2023-07-25T02:40:34.594Z,2.85
2023-07-25T02:41:36.849Z,2.80
2023-07-25T02:42:38.844Z,2.50
2023-07-25T02:43:40.928Z,2.40
2023-07-25T02:44:43.247Z,2.05
2023-07-25T02:45:45.246Z,2.33
2023-07-25T02:46:47.262Z,1.88
2023-07-25T02:47:49.331Z,2.50
2023-07-25T02:48:51.665Z,2.42
2023-07-25T02:49:53.744Z,2.38
2023-07-25T02:50:55.776Z,3.00
2023-07-25T02:51:57.911Z,2.22
2023-07-25T02:53:00.501Z,2.28
2023-07-25T02:54:02.552Z,2.72
2023-07-25T02:55:04.961Z,3.33
2023-07-25T02:56:06.980Z,2.47
2023-07-25T02:57:09.356Z,2.28
2023-07-25T02:58:14.025Z,2.45
2023-07-25T02:59:16.204Z,2.63
2023-07-25T03:00:18.272Z,2.55
2023-07-25T03:01:20.788Z,2.45
2023-07-25T03:02:22.910Z,2.80
2023-07-25T03:03:25.048Z,2.25
2023-07-25T03:04:27.112Z,3.42
2023-07-25T03:05:29.826Z,2.80
2023-07-25T03:06:32.191Z,2.75
2023-07-25T03:07:34.261Z,3.28
2023-07-25T03:08:36.310Z,2.88
2023-07-25T03:09:39.112Z,2.17
2023-07-25T03:10:41.207Z,3.25
2023-07-25T03:11:43.165Z,2.40
2023-07-25T03:12:45.233Z,2.47
2023-07-25T03:13:47.621Z,3.15
2023-07-25T03:14:49.575Z,2.88
2023-07-25T03:15:51.638Z,2.28
2023-07-25T03:16:53.688Z,2.13
2023-07-25T03:17:56.136Z,2.42
2023-07-25T03:18:58.200Z,3.72
2023-07-25T03:20:00.354Z,2.95
2023-07-25T03:21:02.442Z,3.08
2023-07-25T03:22:05.095Z,3.85
2023-07-25T03:23:07.085Z,2.47
2023-07-25T03:24:09.282Z,2.20
2023-07-25T03:25:11.317Z,2.53
2023-07-25T03:26:13.902Z,2.85
2023-07-25T03:27:19.594Z,2.20
2023-07-25T03:28:21.679Z,2.22
2023-07-25T03:29:24.115Z,2.50
2023-07-25T03:31:28.652Z,3.17
2023-07-25T03:32:31.017Z,2.00
2023-07-25T03:33:33.002Z,2.42
2023-07-25T03:34:35.373Z,2.55
2023-07-25T03:35:37.383Z,3.15
2023-07-25T03:36:39.367Z,2.58
2023-07-25T03:37:41.368Z,2.92
2023-07-25T03:38:43.670Z,2.70
2023-07-25T03:39:45.741Z,2.50
2023-07-25T03:40:47.828Z,2.45
2023-07-25T03:41:49.916Z,2.83
2023-07-25T03:42:52.207Z,3.00
2023-07-25T03:43:54.221Z,2.30
2023-07-25T03:44:56.387Z,2.30
2023-07-25T03:45:58.415Z,2.70
2023-07-25T03:47:00.816Z,2.05
2023-07-25T03:48:03.260Z,2.00
2023-07-25T03:49:05.400Z,2.28
2023-07-25T03:50:07.998Z,2.80
2023-07-25T03:51:10.336Z,2.05
2023-07-25T03:52:12.366Z,2.53
2023-07-25T03:53:14.362Z,2.42
2023-07-25T03:54:16.466Z,2.40
2023-07-25T03:55:18.865Z,2.05
2023-07-25T03:56:20.840Z,1.90
2023-07-25T03:57:22.936Z,1.75
2023-07-25T03:58:25.018Z,2.22
2023-07-25T03:59:27.633Z,2.72
2023-07-25T04:00:29.670Z,2.67
2023-07-25T04:01:32.215Z,3.10
2023-07-25T04:03:37.258Z,2.35
2023-07-25T04:04:39.443Z,2.35
2023-07-25T04:05:41.932Z,2.08
2023-07-25T04:06:44.206Z,2.10
2023-07-25T04:07:46.599Z,2.50
2023-07-25T04:08:48.696Z,2.08
2023-07-25T04:09:50.828Z,1.85
2023-07-25T04:10:52.978Z,1.95
2023-07-25T04:11:55.462Z,2.17
2023-07-25T04:12:57.523Z,2.08
2023-07-25T04:13:59.558Z,2.47
2023-07-25T04:15:01.562Z,1.90
2023-07-25T04:16:04.128Z,2.47
2023-07-25T04:17:06.169Z,2.17
2023-07-25T04:18:08.202Z,2.35
2023-07-25T04:19:10.157Z,2.60
2023-07-25T04:20:12.648Z,2.13
2023-07-25T04:21:14.619Z,1.80
2023-07-25T04:22:16.794Z,2.45
2023-07-25T04:23:18.798Z,1.92
2023-07-25T04:24:21.254Z,2.10
2023-07-25T04:25:23.332Z,2.15
2023-07-25T04:26:25.366Z,1.77
2023-07-25T04:27:28.784Z,2.05
2023-07-25T04:28:32.752Z,1.98
2023-07-25T04:29:34.999Z,2.58
2023-07-25T04:30:37.076Z,2.03
2023-07-25T04:31:39.182Z,2.03
2023-07-25T04:32:41.627Z,2.28
2023-07-25T04:33:44.262Z,2.33
2023-07-25T04:34:46.468Z,2.58
2023-07-25T04:35:48.516Z,1.98
2023-07-25T04:36:51.009Z,1.80
2023-07-25T04:37:53.141Z,2.40
2023-07-25T04:38:55.146Z,3.00
2023-07-25T04:39:57.157Z,1.90
2023-07-25T04:40:59.492Z,2.42
2023-07-25T04:42:01.547Z,2.58
2023-07-25T04:43:03.586Z,1.98
2023-07-25T04:44:05.626Z,3.22
2023-07-25T04:45:09.014Z,2.20
2023-07-25T04:46:11.073Z,3.33
2023-07-25T04:47:13.163Z,2.78
2023-07-25T04:48:15.286Z,1.92
2023-07-25T04:49:18.276Z,3.13
2023-07-25T04:50:20.285Z,3.47
2023-07-25T04:51:22.242Z,2.85
2023-07-25T04:52:24.621Z,2.38
2023-07-25T04:53:27.247Z,3.58
2023-07-25T04:54:29.233Z,3.00
2023-07-25T04:55:31.208Z,3.90
2023-07-25T04:56:33.271Z,2.58
2023-07-25T04:57:35.898Z,3.97
2023-07-25T04:58:39.848Z,3.30
2023-07-25T04:59:41.875Z,3.70
2023-07-25T05:00:43.961Z,3.20
2023-07-25T05:01:46.431Z,2.85
2023-07-25T05:02:48.626Z,2.47
2023-07-25T05:03:50.778Z,2.63
2023-07-25T05:04:52.818Z,3.00
2023-07-25T05:05:56.470Z,2.75
2023-07-25T05:06:58.432Z,2.45
2023-07-25T05:08:00.722Z,2.30
2023-07-25T05:09:03.903Z,2.33
2023-07-25T05:10:06.947Z,2.35
2023-07-25T05:11:09.078Z,2.47
2023-07-25T05:12:13.638Z,2.60
2023-07-25T05:13:15.683Z,1.85
2023-07-25T05:14:19.129Z,1.45
2023-07-25T05:15:21.255Z,1.75
2023-07-25T05:16:24.133Z,1.48
2023-07-25T05:17:26.188Z,2.03
2023-07-25T05:18:28.551Z,2.83
2023-07-25T05:19:30.556Z,1.98
2023-07-25T05:20:32.641Z,2.50
2023-07-25T05:21:34.768Z,2.53
2023-07-25T05:22:37.219Z,2.20
2023-07-25T05:23:39.289Z,2.33
2023-07-25T05:24:41.299Z,1.83
2023-07-25T05:25:44.493Z,1.83
2023-07-25T05:26:46.822Z,2.40
2023-07-25T05:27:48.877Z,2.15
2023-07-25T05:28:51.199Z,2.00
2023-07-25T05:29:53.208Z,2.40
2023-07-25T05:30:55.614Z,2.25
2023-07-25T05:31:57.657Z,2.10
2023-07-25T05:32:59.701Z,2.03
2023-07-25T05:34:01.752Z,2.15
2023-07-25T05:35:04.281Z,1.85
2023-07-25T05:36:06.547Z,2.00
2023-07-25T05:37:08.610Z,2.47
2023-07-25T05:38:10.675Z,1.83
2023-07-25T05:39:13.230Z,3.10
2023-07-25T05:40:15.246Z,2.88
2023-07-25T05:41:17.487Z,1.90
2023-07-25T05:42:19.481Z,2.10
2023-07-25T05:43:21.931Z,2.28
2023-07-25T05:44:24.002Z,1.98
2023-07-25T05:45:26.230Z,2.22
2023-07-25T05:46:28.389Z,2.58
2023-07-25T05:47:31.200Z,2.35
2023-07-25T05:48:33.266Z,2.38
2023-07-25T05:49:35.353Z,1.95
2023-07-25T05:50:37.616Z,2.33
2023-07-25T05:51:39.930Z,2.63
2023-07-25T05:52:41.957Z,2.45
2023-07-25T05:53:43.980Z,2.25
2023-07-25T05:54:46.036Z,2.72
2023-07-25T05:55:48.880Z,2.45
2023-07-25T05:56:50.943Z,2.35
2023-07-25T05:57:53.009Z,2.90
2023-07-25T05:58:55.635Z,2.47
2023-07-25T05:59:58.008Z,2.40
2023-07-25T06:01:00.791Z,2.90
2023-07-25T06:02:05.282Z,3.00
2023-07-25T06:03:07.700Z,2.88
2023-07-25T06:04:10.297Z,3.28
2023-07-25T06:05:12.643Z,3.08
2023-07-25T06:06:14.682Z,2.72
2023-07-25T06:07:17.039Z,2.95
2023-07-25T06:08:19.384Z,3.88
2023-07-25T06:09:21.348Z,2.35
2023-07-25T06:10:23.410Z,2.70
2023-07-25T06:11:26.567Z,3.45
2023-07-25T06:12:28.929Z,3.08
2023-07-25T06:13:34.753Z,3.03
2023-07-25T06:14:37.207Z,3.25
2023-07-25T06:15:39.416Z,2.88
2023-07-25T06:16:42.043Z,3.92
2023-07-25T06:17:44.070Z,2.70
2023-07-25T06:18:46.205Z,2.65
2023-07-25T06:19:49.215Z,2.97
2023-07-25T06:20:51.816Z,3.03
2023-07-25T06:21:53.916Z,3.13
2023-07-25T06:22:55.944Z,3.17
2023-07-25T06:23:58.175Z,3.17
2023-07-25T06:25:00.578Z,2.90
2023-07-25T06:26:02.613Z,2.75
2023-07-25T06:27:05.136Z,3.10
2023-07-25T06:28:07.464Z,3.15
2023-07-25T06:29:09.902Z,3.08
2023-07-25T06:30:12.010Z,3.20
2023-07-25T06:31:14.149Z,3.28
2023-07-25T06:32:16.296Z,3.45
2023-07-25T06:33:18.680Z,2.83
2023-07-25T06:34:20.674Z,2.72
2023-07-25T06:35:23.742Z,3.38
2023-07-25T06:36:26.258Z,3.38
2023-07-25T06:38:30.957Z,2.92
2023-07-25T06:39:32.959Z,3.72
2023-07-25T06:40:35.035Z,2.80
2023-07-25T06:41:37.449Z,2.67
2023-07-25T06:42:39.408Z,2.35
2023-07-25T06:43:41.823Z,3.00
2023-07-25T06:44:43.776Z,3.00
2023-07-25T06:45:46.373Z,2.88
2023-07-25T06:46:48.535Z,2.92
2023-07-25T06:47:50.825Z,2.20
2023-07-25T06:48:53.668Z,2.95
2023-07-25T06:49:56.039Z,2.10
2023-07-25T06:50:58.061Z,2.67
2023-07-25T06:52:01.614Z,2.17
2023-07-25T06:53:04.559Z,2.17
2023-07-25T06:54:06.898Z,2.75
2023-07-25T06:55:10.259Z,2.72
2023-07-25T06:56:12.306Z,1.90
2023-07-25T06:57:14.318Z,2.63
2023-07-25T06:58:16.744Z,1.95
2023-07-25T06:59:21.704Z,1.77
2023-07-25T07:00:23.680Z,2.00
2023-07-25T07:01:29.587Z,2.20
2023-07-25T07:02:32.444Z,1.83
2023-07-25T07:03:34.659Z,2.05
2023-07-25T07:04:36.769Z,2.28
2023-07-25T07:05:38.900Z,1.73
2023-07-25T07:06:41.294Z,2.33
2023-07-25T07:07:43.293Z,2.08
2023-07-25T07:08:45.457Z,2.28
2023-07-25T07:09:47.494Z,1.70
2023-07-25T07:10:59.871Z,2.17
2023-07-25T07:12:01.971Z,1.95
2023-07-25T07:13:04.122Z,2.08
2023-07-25T07:14:06.360Z,2.53
2023-07-25T07:15:08.977Z,2.38
2023-07-25T07:16:11.066Z,2.13
2023-07-25T07:17:13.373Z,2.03
2023-07-25T07:18:15.816Z,2.20
2023-07-25T07:19:18.092Z,2.13
2023-07-25T07:20:20.605Z,1.90
2023-07-25T07:21:22.664Z,2.22
2023-07-25T07:22:25.108Z,2.05
2023-07-25T07:24:29.761Z,2.00
2023-07-25T07:25:31.804Z,2.25
2023-07-25T07:26:36.567Z,1.70
2023-07-25T07:27:39.075Z,2.13
2023-07-25T07:28:41.352Z,1.80
2023-07-25T07:29:43.376Z,1.95
2023-07-25T07:30:52.422Z,2.08
2023-07-25T07:31:54.736Z,1.92
2023-07-25T07:32:59.961Z,2.03
2023-07-25T07:34:11.728Z,1.90
2023-07-25T07:35:13.757Z,2.30
2023-07-25T07:36:16.164Z,1.98
2023-07-25T07:37:18.208Z,1.83
2023-07-25T07:38:20.196Z,2.00
2023-07-25T07:39:22.264Z,2.17
2023-07-25T07:40:24.689Z,2.03
2023-07-25T07:41:26.656Z,1.80
2023-07-25T07:42:28.621Z,2.10
2023-07-25T07:43:30.575Z,1.88
2023-07-25T07:44:32.952Z,1.73
2023-07-25T07:45:34.978Z,1.95
2023-07-25T07:46:37.033Z,2.10
2023-07-25T07:47:39.176Z,1.67
2023-07-25T07:48:44.577Z,1.98
2023-07-25T07:49:46.722Z,2.30
2023-07-25T07:50:51.087Z,2.22
2023-07-25T07:52:09.637Z,1.92
2023-07-25T07:53:15.702Z,1.85
2023-07-25T07:54:17.851Z,1.95
2023-07-25T07:55:20.004Z,2.15
2023-07-25T07:56:22.100Z,2.33
2023-07-25T07:57:24.408Z,2.05
2023-07-25T07:58:26.425Z,1.73
2023-07-25T07:59:28.498Z,1.75
2023-07-25T08:00:32.565Z,2.60
2023-07-25T08:01:35.450Z,2.05
2023-07-25T08:02:38.880Z,2.10
2023-07-25T08:03:40.971Z,1.77
2023-07-25T08:04:43.121Z,2.00
2023-07-25T08:05:45.946Z,1.70
2023-07-25T08:06:47.918Z,1.77
2023-07-25T08:07:50.711Z,1.80
2023-07-25T08:09:55.780Z,2.35
2023-07-25T08:10:57.835Z,2.17
2023-07-25T08:12:00.134Z,1.58
2023-07-25T08:13:02.206Z,1.67
2023-07-25T08:14:04.823Z,1.77
2023-07-25T08:15:07.958Z,1.73
2023-07-25T08:16:10.092Z,1.95
2023-07-25T08:17:12.089Z,1.90
2023-07-25T08:18:14.671Z,2.35
2023-07-25T08:19:16.696Z,1.73
2023-07-25T08:20:18.946Z,2.00
2023-07-25T08:21:22.448Z,2.10
2023-07-25T08:22:24.786Z,1.55
2023-07-25T08:23:27.611Z,1.40
2023-07-25T08:25:31.552Z,1.67
2023-07-25T08:26:34.027Z,1.40
2023-07-25T08:27:36.113Z,1.70
2023-07-25T08:28:38.191Z,1.77
2023-07-25T08:29:45.428Z,1.77
2023-07-25T08:30:47.734Z,1.25
2023-07-25T08:31:49.897Z,1.67
2023-07-25T08:32:52.373Z,1.70
2023-07-25T08:33:54.487Z,1.80
2023-07-25T08:34:56.932Z,1.75
2023-07-25T08:35:59.365Z,2.03
2023-07-25T08:37:01.409Z,1.50
2023-07-25T08:38:03.431Z,2.05
2023-07-25T08:39:05.906Z,1.95
2023-07-25T08:40:08.676Z,1.60
2023-07-25T08:42:17.267Z,1.60
2023-07-25T08:43:21.565Z,1.45
2023-07-25T08:44:26.208Z,1.45
2023-07-25T08:45:28.644Z,2.05
2023-07-25T08:46:32.157Z,1.67
2023-07-25T08:47:36.110Z,1.33
2023-07-25T08:48:39.697Z,1.50
2023-07-25T08:49:42.390Z,1.60
2023-07-25T08:50:47.355Z,1.45
2023-07-25T08:51:54.152Z,1.38
2023-07-25T08:52:58.512Z,3.63
2023-07-25T08:54:11.525Z,1.90
2023-07-25T08:55:13.993Z,1.50
2023-07-25T08:56:16.592Z,1.70
2023-07-25T08:57:20.040Z,1.77
2023-07-25T08:58:22.467Z,1.52
2023-07-25T08:59:26.143Z,1.77
2023-07-25T09:00:29.755Z,1.60
2023-07-25T09:01:32.521Z,1.52
2023-07-25T09:02:35.362Z,1.63
2023-07-25T09:04:41.058Z,1.70
2023-07-25T09:05:43.443Z,1.83
2023-07-25T09:06:45.658Z,1.42
2023-07-25T09:07:47.764Z,1.70
2023-07-25T09:08:50.143Z,1.50
2023-07-25T09:09:52.309Z,1.60
2023-07-25T09:10:58.231Z,1.55
2023-07-25T09:12:00.457Z,1.90
2023-07-25T09:13:02.982Z,1.10
2023-07-25T09:14:05.606Z,1.55
2023-07-25T09:15:08.033Z,1.90
2023-07-25T09:16:10.137Z,1.80
2023-07-25T09:17:12.576Z,1.60
2023-07-25T09:18:14.661Z,2.03
2023-07-25T09:19:16.921Z,1.27
2023-07-25T09:20:19.201Z,1.55
2023-07-25T09:22:31.479Z,2.00
2023-07-25T09:23:33.698Z,2.13
2023-07-25T09:24:39.791Z,1.75
2023-07-25T09:25:42.631Z,1.98
2023-07-25T09:26:52.428Z,1.98
2023-07-25T09:27:57.692Z,2.33
2023-07-25T09:29:01.831Z,2.83
2023-07-25T09:30:12.118Z,2.20
2023-07-25T09:31:14.182Z,1.80
2023-07-25T09:32:27.571Z,1.98
2023-07-25T09:33:29.958Z,1.58
2023-07-25T09:34:32.286Z,1.77
2023-07-25T09:35:34.373Z,1.85
2023-07-25T09:36:36.411Z,1.92
2023-07-25T09:37:38.804Z,1.73
2023-07-25T09:39:53.233Z,2.03
2023-07-25T09:40:56.022Z,1.90
2023-07-25T09:43:01.385Z,2.25
2023-07-25T09:44:04.373Z,1.85
2023-07-25T09:45:09.551Z,1.90
2023-07-25T09:46:12.438Z,1.80
2023-07-25T09:47:16.126Z,2.03
2023-07-25T09:48:18.338Z,1.65
2023-07-25T09:49:22.290Z,2.28
2023-07-25T09:50:27.624Z,2.28
2023-07-25T09:51:32.169Z,1.77
2023-07-25T09:52:42.263Z,1.77
2023-07-25T09:53:45.488Z,1.88
2023-07-25T09:54:47.603Z,2.10
2023-07-25T09:55:50.047Z,1.70
2023-07-25T09:56:52.727Z,2.67
2023-07-25T09:57:55.103Z,2.58
2023-07-25T10:00:05.099Z,2.30
2023-07-25T10:01:10.673Z,2.28
2023-07-25T10:02:12.851Z,2.88
2023-07-25T10:03:15.430Z,1.95
2023-07-25T10:04:18.228Z,2.30
2023-07-25T10:05:20.954Z,2.13
2023-07-25T10:06:23.805Z,1.90
2023-07-25T10:07:27.076Z,2.20
2023-07-25T10:08:29.665Z,2.25
2023-07-25T10:09:31.964Z,2.10
2023-07-25T10:10:33.975Z,1.60
2023-07-25T10:11:37.179Z,1.80
2023-07-25T10:12:39.499Z,1.70
2023-07-25T10:13:44.712Z,1.30
2023-07-25T10:14:47.415Z,1.70
2023-07-25T10:28:23.699Z,2.77
2023-07-25T10:29:45.531Z,2.30
2023-07-25T10:30:48.981Z,1.40
2023-07-25T10:31:53.833Z,1.35
2023-07-25T10:33:00.790Z,2.40
2023-07-25T10:34:03.856Z,1.40
2023-07-25T10:35:06.407Z,1.52
2023-07-25T10:36:23.933Z,1.60
2023-07-25T10:37:37.901Z,1.27
2023-07-25T10:38:44.717Z,1.10
2023-07-25T10:39:46.858Z,0.98
2023-07-25T10:40:57.990Z,1.13
2023-07-25T10:42:00.620Z,1.50
2023-07-25T10:43:07.530Z,1.42
2023-07-25T10:44:10.114Z,1.23
2023-07-25T10:45:29.747Z,1.65
2023-07-25T10:46:34.438Z,1.45
2023-07-25T10:47:51.254Z,2.00
2023-07-25T10:48:55.333Z,1.60
2023-07-25T10:49:58.262Z,1.70
2023-07-25T10:51:07.886Z,1.13
2023-07-25T10:52:10.435Z,1.30
2023-07-25T10:53:16.409Z,1.02
2023-07-25T10:54:23.708Z,0.85
2023-07-25T10:55:25.720Z,1.08
2023-07-25T10:56:28.534Z,1.70
2023-07-25T10:57:30.730Z,1.45
2023-07-25T10:58:40.991Z,1.33
2023-07-25T11:00:09.865Z,1.73
2023-07-25T11:12:17.091Z,1.37
2023-07-25T11:13:19.602Z,1.35
2023-07-25T11:14:22.228Z,1.45
2023-07-25T11:15:45.072Z,2.33
2023-07-25T11:16:50.716Z,1.05
2023-07-25T11:17:53.302Z,1.30
2023-07-25T11:18:55.538Z,1.40
2023-07-25T11:20:19.481Z,1.15
2023-07-25T11:21:21.583Z,1.33
2023-07-25T11:22:24.257Z,1.42
2023-07-25T11:23:26.278Z,1.45
2023-07-25T11:24:28.308Z,1.02
2023-07-25T11:25:30.644Z,1.52
2023-07-25T11:26:33.196Z,1.20
2023-07-25T11:27:41.296Z,1.42
2023-07-25T11:28:43.273Z,1.65
2023-07-25T11:29:45.281Z,1.70
2023-07-25T11:30:48.006Z,1.45
2023-07-25T11:31:50.934Z,1.27
2023-07-25T11:32:54.789Z,1.00
2023-07-25T11:33:56.872Z,1.40
2023-07-25T11:35:02.032Z,2.03
2023-07-25T11:36:04.434Z,1.40
2023-07-25T11:37:11.032Z,1.50
2023-07-25T11:38:12.997Z,1.88
2023-07-25T11:39:19.219Z,1.55
2023-07-25T11:40:23.459Z,1.38
2023-07-25T11:41:25.816Z,1.45
2023-07-25T11:42:29.035Z,1.40
2023-07-25T11:43:32.205Z,1.70
2023-07-25T11:44:34.969Z,1.10
2023-07-25T11:46:40.792Z,1.95
2023-07-25T11:47:45.349Z,1.58
2023-07-25T11:48:47.571Z,1.23
2023-07-25T11:49:58.695Z,1.42
2023-07-25T11:51:07.901Z,1.40
2023-07-25T11:52:10.888Z,1.67
2023-07-25T11:54:16.688Z,1.10
2023-07-25T11:55:18.841Z,1.20
2023-07-25T11:56:21.500Z,1.02
2023-07-25T11:57:23.598Z,1.05
2023-07-25T11:58:25.689Z,1.52
2023-07-25T11:59:28.692Z,1.52
2023-07-25T12:00:43.804Z,2.40
2023-07-25T12:01:45.873Z,1.38
2023-07-25T12:02:47.977Z,1.60
2023-07-25T12:03:50.644Z,1.23
2023-07-25T12:04:53.559Z,1.17
2023-07-25T12:05:56.938Z,1.55
2023-07-25T12:07:00.466Z,1.23
2023-07-25T12:08:04.672Z,1.42
2023-07-25T12:09:07.270Z,1.08
2023-07-25T12:10:09.394Z,1.23
2023-07-25T12:11:13.546Z,1.73
2023-07-25T12:12:15.609Z,1.30
2023-07-25T12:13:17.996Z,1.52
2023-07-25T12:14:21.877Z,1.27
2023-07-25T12:15:24.726Z,1.27
2023-07-25T12:16:37.839Z,1.60
2023-07-25T12:17:45.191Z,1.40
2023-07-25T12:18:52.998Z,1.65
2023-07-25T12:19:55.309Z,1.10
2023-07-25T12:20:59.866Z,1.17
2023-07-25T12:22:06.827Z,1.40
2023-07-25T12:23:08.912Z,1.40
2023-07-25T12:24:12.678Z,1.73
2023-07-25T12:25:19.379Z,1.88
2023-07-25T12:26:22.624Z,1.88
2023-07-25T12:27:24.688Z,1.30
2023-07-25T12:28:26.978Z,2.05
2023-07-25T12:29:29.294Z,1.70
2023-07-25T12:31:34.226Z,1.80
2023-07-25T12:32:36.347Z,1.58
2023-07-25T12:33:39.352Z,1.50
2023-07-25T12:34:41.926Z,1.40
2023-07-25T12:35:44.088Z,1.55
2023-07-25T12:36:46.852Z,2.05
2023-07-25T12:38:51.118Z,1.55
2023-07-25T12:39:53.167Z,1.45
2023-07-25T12:40:55.327Z,1.70
2023-07-25T12:41:57.713Z,1.63
2023-07-25T12:44:02.628Z,1.42
2023-07-25T12:45:10.492Z,1.50
2023-07-25T12:46:13.266Z,2.03
2023-07-25T12:47:15.784Z,1.77
2023-07-25T12:48:17.906Z,1.70
2023-07-25T12:49:19.904Z,2.10
2023-07-25T12:50:21.949Z,1.60
2023-07-25T12:51:24.345Z,2.13
2023-07-25T12:52:26.486Z,1.95
2023-07-25T12:53:28.779Z,1.63
2023-07-25T12:54:30.751Z,1.70
2023-07-25T12:55:33.997Z,1.70
2023-07-25T12:56:37.613Z,1.60
2023-07-25T12:57:39.646Z,1.90
2023-07-25T12:58:41.927Z,1.63
2023-07-25T12:59:44.302Z,1.63
2023-07-25T13:00:46.339Z,1.48
2023-07-25T13:01:49.348Z,1.63
2023-07-25T13:02:51.556Z,1.83
2023-07-25T13:04:56.214Z,1.75
2023-07-25T13:05:58.214Z,1.38
2023-07-25T13:07:00.256Z,1.70
2023-07-25T13:08:02.715Z,1.55
2023-07-25T13:09:04.773Z,1.60
2023-07-25T13:10:08.199Z,2.10
2023-07-25T13:11:10.238Z,1.63
2023-07-25T13:12:12.789Z,2.10
2023-07-25T13:13:15.583Z,1.98
2023-07-25T13:14:17.887Z,1.60
2023-07-25T13:15:19.976Z,2.10
2023-07-25T13:16:22.406Z,1.92
2023-07-25T13:17:24.396Z,2.17
2023-07-25T13:18:26.497Z,2.28
2023-07-25T13:19:28.591Z,1.95
2023-07-25T13:20:30.943Z,1.52
2023-07-25T13:21:33.139Z,1.60
2023-07-25T13:22:35.877Z,1.63
2023-07-25T13:23:38.033Z,1.92
2023-07-25T13:24:40.348Z,1.75
2023-07-25T13:25:46.660Z,1.73
2023-07-25T13:26:48.697Z,2.15
2023-07-25T13:27:50.745Z,1.60
2023-07-25T13:28:53.075Z,1.75
2023-07-25T13:29:55.996Z,1.95
2023-07-25T13:30:59.003Z,1.70
2023-07-25T13:32:01.023Z,1.60
2023-07-25T13:33:06.436Z,2.08
2023-07-25T13:34:08.631Z,1.85
2023-07-25T13:35:10.661Z,2.60
2023-07-25T13:36:12.665Z,1.50
2023-07-25T13:37:18.592Z,2.35
2023-07-25T13:38:20.592Z,1.75
2023-07-25T13:39:22.551Z,2.10
2023-07-25T13:40:25.959Z,1.95
2023-07-25T13:41:28.419Z,1.63
2023-07-25T13:42:30.681Z,1.75
2023-07-25T13:43:32.628Z,1.80
2023-07-25T13:44:34.779Z,1.83
2023-07-25T13:45:50.412Z,1.90
2023-07-25T13:46:54.493Z,2.30
2023-07-25T13:47:56.466Z,1.70
2023-07-25T13:48:59.271Z,1.55
2023-07-25T13:50:04.717Z,1.60
2023-07-25T13:51:06.766Z,2.30
2023-07-25T13:52:08.968Z,1.52
2023-07-25T13:53:11.164Z,1.90
2023-07-25T13:54:15.321Z,2.05
2023-07-25T13:55:17.308Z,2.40
2023-07-25T13:56:19.468Z,1.90
2023-07-25T13:57:25.886Z,1.70
2023-07-25T13:58:33.889Z,1.60
2023-07-25T13:59:35.933Z,1.80
2023-07-25T14:00:37.970Z,2.20
2023-07-25T14:01:40.225Z,1.75
2023-07-25T14:03:44.880Z,2.10
2023-07-25T14:04:47.062Z,1.98
2023-07-25T14:05:49.341Z,2.50
2023-07-25T14:06:52.375Z,2.00
2023-07-25T14:07:54.740Z,2.20
2023-07-25T14:08:57.574Z,1.70
2023-07-25T14:09:59.801Z,2.05
2023-07-25T14:11:01.822Z,2.47
2023-07-25T14:12:04.586Z,1.95
2023-07-25T14:13:06.727Z,1.67
2023-07-25T14:14:08.732Z,1.80
2023-07-25T14:15:11.124Z,1.70
2023-07-25T14:16:13.564Z,2.20
2023-07-25T14:17:15.606Z,1.88
2023-07-25T14:18:17.625Z,2.45
2023-07-25T14:19:19.860Z,1.90
2023-07-25T14:20:22.343Z,2.28
2023-07-25T14:21:24.676Z,1.85
2023-07-25T14:22:26.896Z,2.00
2023-07-25T14:23:28.919Z,2.00
2023-07-25T14:24:31.309Z,2.10
2023-07-25T14:25:33.720Z,2.22
2023-07-25T14:26:37.272Z,2.47
2023-07-25T14:27:39.628Z,2.00
2023-07-25T14:28:42.016Z,2.05
2023-07-25T14:29:43.939Z,2.08
2023-07-25T14:30:46.295Z,2.20
2023-07-25T14:31:48.469Z,2.22
2023-07-25T14:32:50.886Z,2.05
2023-07-25T14:33:52.943Z,1.52
2023-07-25T14:34:56.971Z,2.20
2023-07-25T14:35:59.451Z,3.15
2023-07-25T14:37:01.820Z,1.70
2023-07-25T14:38:05.131Z,2.50
2023-07-25T14:39:09.290Z,2.22
2023-07-25T14:40:12.349Z,2.58
2023-07-25T14:41:14.719Z,2.13
2023-07-25T14:42:16.724Z,1.92
2023-07-25T14:43:18.829Z,2.25
2023-07-25T14:44:20.893Z,2.15
2023-07-25T14:45:23.286Z,1.88
2023-07-25T14:46:25.425Z,2.22
2023-07-25T14:47:27.580Z,2.35
2023-07-25T14:48:29.736Z,2.33